sensor_id;sensor_type;location;lat;lon;timestamp;P1;durP1;ratioP1;P2;durP2;ratioP2
79015;SDS011;68420;44.714;37.756;2023-03-11T00:00:58;5.18;;;2.33;;
79015;SDS011;68420;44.714;37.756;2023-03-11T00:01:59;4.53;;;2.20;;
79015;SDS011;68420;44.714;37.756;2023-03-11T00:03:01;5.20;;;2.80;;
79015;SDS011;68420;44.714;37.756;2023-03-11T00:04:04;4.95;;;2.40;;
79015;SDS011;68420;44.714;37.756;2023-03-11T00:05:06;6.10;;;2.33;;
79015;SDS011;68420;44.714;37.756;2023-03-11T00:06:08;4.25;;;2.13;;
79015;SDS011;68420;44.714;37.756;2023-03-11T00:07:10;5.22;;;2.42;;
79015;SDS011;68420;44.714;37.756;2023-03-11T00:08:13;5.05;;;2.28;;
79015;SDS011;68420;44.714;37.756;2023-03-11T00:10:20;6.47;;;2.53;;
79015;SDS011;68420;44.714;37.756;2023-03-11T00:11:24;6.28;;;2.65;;
79015;SDS011;68420;44.714;37.756;2023-03-11T00:12:28;4.90;;;2.42;;
79015;SDS011;68420;44.714;37.756;2023-03-11T00:13:30;6.20;;;2.17;;
79015;SDS011;68420;44.714;37.756;2023-03-11T00:14:32;4.82;;;1.98;;
79015;SDS011;68420;44.714;37.756;2023-03-11T00:15:34;5.43;;;2.20;;
79015;SDS011;68420;44.714;37.756;2023-03-11T00:16:36;5.82;;;2.40;;
79015;SDS011;68420;44.714;37.756;2023-03-11T00:17:38;5.15;;;2.22;;
79015;SDS011;68420;44.714;37.756;2023-03-11T00:18:40;5.00;;;2.25;;
79015;SDS011;68420;44.714;37.756;2023-03-11T00:19:42;5.68;;;2.45;;
79015;SDS011;68420;44.714;37.756;2023-03-11T00:20:44;5.65;;;2.55;;
79015;SDS011;68420;44.714;37.756;2023-03-11T00:21:46;4.53;;;2.33;;
79015;SDS011;68420;44.714;37.756;2023-03-11T00:22:48;5.47;;;2.42;;
79015;SDS011;68420;44.714;37.756;2023-03-11T00:23:51;4.68;;;2.38;;
79015;SDS011;68420;44.714;37.756;2023-03-11T00:24:52;4.90;;;2.28;;
79015;SDS011;68420;44.714;37.756;2023-03-11T00:25:54;5.60;;;2.50;;
79015;SDS011;68420;44.714;37.756;2023-03-11T00:26:56;7.22;;;2.60;;
79015;SDS011;68420;44.714;37.756;2023-03-11T00:27:57;5.78;;;2.67;;
79015;SDS011;68420;44.714;37.756;2023-03-11T00:28:59;4.88;;;2.40;;
79015;SDS011;68420;44.714;37.756;2023-03-11T00:30:00;4.15;;;2.20;;
79015;SDS011;68420;44.714;37.756;2023-03-11T00:31:02;5.40;;;2.70;;
79015;SDS011;68420;44.714;37.756;2023-03-11T00:32:04;5.55;;;2.33;;
79015;SDS011;68420;44.714;37.756;2023-03-11T00:33:06;6.88;;;2.70;;
79015;SDS011;68420;44.714;37.756;2023-03-11T00:34:10;5.50;;;2.58;;
79015;SDS011;68420;44.714;37.756;2023-03-11T00:35:13;5.32;;;2.60;;
79015;SDS011;68420;44.714;37.756;2023-03-11T00:36:21;5.63;;;2.30;;
79015;SDS011;68420;44.714;37.756;2023-03-11T00:37:28;5.20;;;2.47;;
79015;SDS011;68420;44.714;37.756;2023-03-11T00:38:30;5.30;;;2.60;;
79015;SDS011;68420;44.714;37.756;2023-03-11T00:39:31;4.32;;;2.30;;
79015;SDS011;68420;44.714;37.756;2023-03-11T00:40:34;5.32;;;2.38;;
79015;SDS011;68420;44.714;37.756;2023-03-11T00:41:36;6.65;;;2.50;;
79015;SDS011;68420;44.714;37.756;2023-03-11T00:42:38;5.72;;;2.45;;
79015;SDS011;68420;44.714;37.756;2023-03-11T00:43:39;5.47;;;2.40;;
79015;SDS011;68420;44.714;37.756;2023-03-11T00:44:41;4.90;;;2.33;;
79015;SDS011;68420;44.714;37.756;2023-03-11T00:45:42;5.60;;;2.45;;
79015;SDS011;68420;44.714;37.756;2023-03-11T00:46:44;5.50;;;2.35;;
79015;SDS011;68420;44.714;37.756;2023-03-11T00:47:46;5.07;;;2.45;;
79015;SDS011;68420;44.714;37.756;2023-03-11T00:48:50;4.53;;;2.10;;
79015;SDS011;68420;44.714;37.756;2023-03-11T00:49:52;5.38;;;2.40;;
79015;SDS011;68420;44.714;37.756;2023-03-11T00:50:53;4.93;;;2.35;;
79015;SDS011;68420;44.714;37.756;2023-03-11T00:51:55;5.53;;;2.42;;
79015;SDS011;68420;44.714;37.756;2023-03-11T00:52:57;6.15;;;2.92;;
79015;SDS011;68420;44.714;37.756;2023-03-11T00:53:59;4.82;;;2.22;;
79015;SDS011;68420;44.714;37.756;2023-03-11T00:55:01;5.72;;;2.25;;
79015;SDS011;68420;44.714;37.756;2023-03-11T00:56:09;6.13;;;2.60;;
79015;SDS011;68420;44.714;37.756;2023-03-11T00:57:14;5.38;;;2.38;;
79015;SDS011;68420;44.714;37.756;2023-03-11T00:58:17;4.95;;;2.10;;
79015;SDS011;68420;44.714;37.756;2023-03-11T00:59:22;3.40;;;1.75;;
79015;SDS011;68420;44.714;37.756;2023-03-11T01:00:24;4.80;;;2.10;;
79015;SDS011;68420;44.714;37.756;2023-03-11T01:01:26;4.78;;;2.28;;
79015;SDS011;68420;44.714;37.756;2023-03-11T01:02:27;5.28;;;1.83;;
79015;SDS011;68420;44.714;37.756;2023-03-11T01:03:29;5.13;;;2.03;;
79015;SDS011;68420;44.714;37.756;2023-03-11T01:04:30;3.88;;;1.88;;
79015;SDS011;68420;44.714;37.756;2023-03-11T01:05:32;4.22;;;1.80;;
79015;SDS011;68420;44.714;37.756;2023-03-11T01:06:38;4.03;;;1.85;;
79015;SDS011;68420;44.714;37.756;2023-03-11T01:07:39;4.72;;;2.20;;
79015;SDS011;68420;44.714;37.756;2023-03-11T01:08:41;4.88;;;2.30;;
79015;SDS011;68420;44.714;37.756;2023-03-11T01:09:44;4.65;;;2.13;;
79015;SDS011;68420;44.714;37.756;2023-03-11T01:10:45;4.15;;;1.98;;
79015;SDS011;68420;44.714;37.756;2023-03-11T01:11:47;3.75;;;1.88;;
79015;SDS011;68420;44.714;37.756;2023-03-11T01:12:48;5.80;;;2.08;;
79015;SDS011;68420;44.714;37.756;2023-03-11T01:13:50;4.97;;;2.03;;
79015;SDS011;68420;44.714;37.756;2023-03-11T01:14:51;4.47;;;1.88;;
79015;SDS011;68420;44.714;37.756;2023-03-11T01:15:53;6.43;;;2.13;;
79015;SDS011;68420;44.714;37.756;2023-03-11T01:16:56;8.43;;;2.33;;
79015;SDS011;68420;44.714;37.756;2023-03-11T01:17:57;3.75;;;1.80;;
79015;SDS011;68420;44.714;37.756;2023-03-11T01:18:59;5.05;;;2.20;;
79015;SDS011;68420;44.714;37.756;2023-03-11T01:20:01;3.58;;;1.73;;
79015;SDS011;68420;44.714;37.756;2023-03-11T01:21:05;4.05;;;1.98;;
79015;SDS011;68420;44.714;37.756;2023-03-11T01:22:06;4.40;;;2.00;;
79015;SDS011;68420;44.714;37.756;2023-03-11T01:23:09;4.10;;;1.98;;
79015;SDS011;68420;44.714;37.756;2023-03-11T01:24:11;4.90;;;2.10;;
79015;SDS011;68420;44.714;37.756;2023-03-11T01:25:13;4.88;;;2.22;;
79015;SDS011;68420;44.714;37.756;2023-03-11T01:26:17;4.78;;;1.90;;
79015;SDS011;68420;44.714;37.756;2023-03-11T01:27:19;5.85;;;2.10;;
79015;SDS011;68420;44.714;37.756;2023-03-11T01:28:20;6.00;;;2.15;;
79015;SDS011;68420;44.714;37.756;2023-03-11T01:29:22;5.55;;;2.30;;
79015;SDS011;68420;44.714;37.756;2023-03-11T01:30:24;6.10;;;2.17;;
79015;SDS011;68420;44.714;37.756;2023-03-11T01:31:26;4.95;;;2.00;;
79015;SDS011;68420;44.714;37.756;2023-03-11T01:32:28;4.22;;;1.92;;
79015;SDS011;68420;44.714;37.756;2023-03-11T01:33:30;4.47;;;2.15;;
79015;SDS011;68420;44.714;37.756;2023-03-11T01:34:33;4.43;;;2.10;;
79015;SDS011;68420;44.714;37.756;2023-03-11T01:35:36;5.43;;;2.42;;
79015;SDS011;68420;44.714;37.756;2023-03-11T01:36:39;6.30;;;2.15;;
79015;SDS011;68420;44.714;37.756;2023-03-11T01:37:41;6.97;;;2.40;;
79015;SDS011;68420;44.714;37.756;2023-03-11T01:38:43;4.93;;;2.20;;
79015;SDS011;68420;44.714;37.756;2023-03-11T01:39:44;4.80;;;2.15;;
79015;SDS011;68420;44.714;37.756;2023-03-11T01:40:47;3.72;;;1.73;;
79015;SDS011;68420;44.714;37.756;2023-03-11T01:41:51;5.95;;;2.30;;
79015;SDS011;68420;44.714;37.756;2023-03-11T01:42:53;7.78;;;2.10;;
79015;SDS011;68420;44.714;37.756;2023-03-11T01:43:55;4.55;;;2.03;;
79015;SDS011;68420;44.714;37.756;2023-03-11T01:45:25;3.85;;;1.92;;
79015;SDS011;68420;44.714;37.756;2023-03-11T01:46:38;4.40;;;1.88;;
79015;SDS011;68420;44.714;37.756;2023-03-11T01:48:04;5.63;;;2.35;;
79015;SDS011;68420;44.714;37.756;2023-03-11T01:49:08;5.55;;;2.53;;
79015;SDS011;68420;44.714;37.756;2023-03-11T01:50:12;4.72;;;2.17;;
79015;SDS011;68420;44.714;37.756;2023-03-11T01:51:16;3.88;;;1.80;;
79015;SDS011;68420;44.714;37.756;2023-03-11T01:52:20;3.85;;;2.00;;
79015;SDS011;68420;44.714;37.756;2023-03-11T01:53:24;4.30;;;2.20;;
79015;SDS011;68420;44.714;37.756;2023-03-11T01:54:33;4.85;;;2.10;;
79015;SDS011;68420;44.714;37.756;2023-03-11T01:55:38;4.47;;;2.08;;
79015;SDS011;68420;44.714;37.756;2023-03-11T01:56:40;3.50;;;1.90;;
79015;SDS011;68420;44.714;37.756;2023-03-11T01:57:42;4.28;;;2.00;;
79015;SDS011;68420;44.714;37.756;2023-03-11T01:58:46;5.03;;;2.00;;
79015;SDS011;68420;44.714;37.756;2023-03-11T01:59:52;4.07;;;2.10;;
79015;SDS011;68420;44.714;37.756;2023-03-11T02:00:58;5.45;;;2.10;;
79015;SDS011;68420;44.714;37.756;2023-03-11T02:02:04;4.85;;;2.00;;
79015;SDS011;68420;44.714;37.756;2023-03-11T02:03:40;4.53;;;2.05;;
79015;SDS011;68420;44.714;37.756;2023-03-11T02:04:36;4.35;;;2.13;;
79015;SDS011;68420;44.714;37.756;2023-03-11T02:05:40;7.88;;;2.38;;
79015;SDS011;68420;44.714;37.756;2023-03-11T02:06:43;5.80;;;2.10;;
79015;SDS011;68420;44.714;37.756;2023-03-11T02:07:45;3.58;;;1.70;;
79015;SDS011;68420;44.714;37.756;2023-03-11T02:08:50;4.03;;;1.90;;
79015;SDS011;68420;44.714;37.756;2023-03-11T02:09:52;5.63;;;2.10;;
79015;SDS011;68420;44.714;37.756;2023-03-11T02:10:53;4.82;;;2.20;;
79015;SDS011;68420;44.714;37.756;2023-03-11T02:11:55;5.07;;;2.00;;
79015;SDS011;68420;44.714;37.756;2023-03-11T02:12:57;5.15;;;2.20;;
79015;SDS011;68420;44.714;37.756;2023-03-11T02:14:03;5.47;;;2.30;;
79015;SDS011;68420;44.714;37.756;2023-03-11T02:15:08;5.32;;;2.28;;
79015;SDS011;68420;44.714;37.756;2023-03-11T02:16:11;6.50;;;2.42;;
79015;SDS011;68420;44.714;37.756;2023-03-11T02:17:13;5.30;;;2.05;;
79015;SDS011;68420;44.714;37.756;2023-03-11T02:18:16;5.53;;;2.20;;
79015;SDS011;68420;44.714;37.756;2023-03-11T02:19:26;7.00;;;2.40;;
79015;SDS011;68420;44.714;37.756;2023-03-11T02:22:01;5.70;;;2.38;;
79015;SDS011;68420;44.714;37.756;2023-03-11T02:23:03;5.47;;;2.33;;
79015;SDS011;68420;44.714;37.756;2023-03-11T02:24:12;4.97;;;2.22;;
79015;SDS011;68420;44.714;37.756;2023-03-11T02:26:55;6.00;;;2.10;;
79015;SDS011;68420;44.714;37.756;2023-03-11T02:27:57;4.78;;;2.10;;
79015;SDS011;68420;44.714;37.756;2023-03-11T02:29:00;6.65;;;2.20;;
79015;SDS011;68420;44.714;37.756;2023-03-11T02:30:04;5.05;;;2.20;;
79015;SDS011;68420;44.714;37.756;2023-03-11T02:31:09;7.13;;;2.45;;
79015;SDS011;68420;44.714;37.756;2023-03-11T02:32:11;4.47;;;1.98;;
79015;SDS011;68420;44.714;37.756;2023-03-11T02:33:16;6.97;;;2.30;;
79015;SDS011;68420;44.714;37.756;2023-03-11T02:34:22;6.38;;;1.90;;
79015;SDS011;68420;44.714;37.756;2023-03-11T02:35:26;6.55;;;2.22;;
79015;SDS011;68420;44.714;37.756;2023-03-11T02:36:29;6.07;;;2.38;;
79015;SDS011;68420;44.714;37.756;2023-03-11T02:37:32;6.85;;;2.63;;
79015;SDS011;68420;44.714;37.756;2023-03-11T02:38:38;5.55;;;2.28;;
79015;SDS011;68420;44.714;37.756;2023-03-11T02:39:42;6.03;;;2.08;;
79015;SDS011;68420;44.714;37.756;2023-03-11T02:41:59;4.68;;;2.10;;
79015;SDS011;68420;44.714;37.756;2023-03-11T02:43:06;4.30;;;2.03;;
79015;SDS011;68420;44.714;37.756;2023-03-11T02:44:12;4.75;;;2.15;;
79015;SDS011;68420;44.714;37.756;2023-03-11T02:45:15;5.43;;;2.00;;
79015;SDS011;68420;44.714;37.756;2023-03-11T02:46:19;4.22;;;1.92;;
79015;SDS011;68420;44.714;37.756;2023-03-11T02:47:20;6.00;;;2.38;;
79015;SDS011;68420;44.714;37.756;2023-03-11T02:48:22;6.03;;;1.90;;
79015;SDS011;68420;44.714;37.756;2023-03-11T02:49:24;4.43;;;1.92;;
79015;SDS011;68420;44.714;37.756;2023-03-11T02:50:25;5.43;;;2.15;;
79015;SDS011;68420;44.714;37.756;2023-03-11T02:51:29;6.28;;;2.10;;
79015;SDS011;68420;44.714;37.756;2023-03-11T02:52:31;5.32;;;2.10;;
79015;SDS011;68420;44.714;37.756;2023-03-11T02:53:36;5.13;;;2.28;;
79015;SDS011;68420;44.714;37.756;2023-03-11T02:54:44;4.45;;;1.92;;
79015;SDS011;68420;44.714;37.756;2023-03-11T02:55:46;6.45;;;2.20;;
79015;SDS011;68420;44.714;37.756;2023-03-11T02:56:47;6.78;;;2.58;;
79015;SDS011;68420;44.714;37.756;2023-03-11T02:57:48;5.00;;;2.08;;
79015;SDS011;68420;44.714;37.756;2023-03-11T02:58:50;5.28;;;1.77;;
79015;SDS011;68420;44.714;37.756;2023-03-11T02:59:52;5.13;;;2.00;;
79015;SDS011;68420;44.714;37.756;2023-03-11T03:00:53;4.60;;;1.85;;
79015;SDS011;68420;44.714;37.756;2023-03-11T03:01:55;5.70;;;2.13;;
79015;SDS011;68420;44.714;37.756;2023-03-11T03:02:56;5.38;;;2.22;;
79015;SDS011;68420;44.714;37.756;2023-03-11T03:03:59;5.15;;;2.00;;
79015;SDS011;68420;44.714;37.756;2023-03-11T03:05:02;4.55;;;1.98;;
79015;SDS011;68420;44.714;37.756;2023-03-11T03:06:03;4.57;;;2.13;;
79015;SDS011;68420;44.714;37.756;2023-03-11T03:07:05;4.70;;;2.08;;
79015;SDS011;68420;44.714;37.756;2023-03-11T03:08:07;4.93;;;1.85;;
79015;SDS011;68420;44.714;37.756;2023-03-11T03:09:14;6.03;;;2.33;;
79015;SDS011;68420;44.714;37.756;2023-03-11T03:10:27;4.65;;;1.80;;
79015;SDS011;68420;44.714;37.756;2023-03-11T03:11:28;5.25;;;1.92;;
79015;SDS011;68420;44.714;37.756;2023-03-11T03:12:30;4.57;;;2.00;;
79015;SDS011;68420;44.714;37.756;2023-03-11T03:13:32;4.82;;;2.00;;
79015;SDS011;68420;44.714;37.756;2023-03-11T03:14:35;4.75;;;1.98;;
79015;SDS011;68420;44.714;37.756;2023-03-11T03:15:36;5.25;;;1.95;;
79015;SDS011;68420;44.714;37.756;2023-03-11T03:16:37;3.97;;;1.90;;
79015;SDS011;68420;44.714;37.756;2023-03-11T03:17:39;4.63;;;2.00;;
79015;SDS011;68420;44.714;37.756;2023-03-11T03:18:41;3.95;;;1.88;;
79015;SDS011;68420;44.714;37.756;2023-03-11T03:19:43;4.57;;;1.83;;
79015;SDS011;68420;44.714;37.756;2023-03-11T03:20:46;4.15;;;1.80;;
79015;SDS011;68420;44.714;37.756;2023-03-11T03:21:48;4.45;;;1.98;;
79015;SDS011;68420;44.714;37.756;2023-03-11T03:22:49;4.07;;;1.73;;
79015;SDS011;68420;44.714;37.756;2023-03-11T03:23:53;3.67;;;1.92;;
79015;SDS011;68420;44.714;37.756;2023-03-11T03:24:54;4.78;;;1.83;;
79015;SDS011;68420;44.714;37.756;2023-03-11T03:25:56;4.53;;;1.95;;
79015;SDS011;68420;44.714;37.756;2023-03-11T03:26:57;4.82;;;1.98;;
79015;SDS011;68420;44.714;37.756;2023-03-11T03:27:59;4.22;;;2.00;;
79015;SDS011;68420;44.714;37.756;2023-03-11T03:29:00;4.75;;;2.10;;
79015;SDS011;68420;44.714;37.756;2023-03-11T03:30:02;6.22;;;2.30;;
79015;SDS011;68420;44.714;37.756;2023-03-11T03:31:05;4.88;;;1.85;;
79015;SDS011;68420;44.714;37.756;2023-03-11T03:32:10;3.03;;;1.63;;
79015;SDS011;68420;44.714;37.756;2023-03-11T03:33:11;4.65;;;1.90;;
79015;SDS011;68420;44.714;37.756;2023-03-11T03:34:13;4.97;;;1.90;;
79015;SDS011;68420;44.714;37.756;2023-03-11T03:35:14;4.47;;;2.05;;
79015;SDS011;68420;44.714;37.756;2023-03-11T03:36:28;5.45;;;1.90;;
79015;SDS011;68420;44.714;37.756;2023-03-11T03:37:35;5.43;;;2.13;;
79015;SDS011;68420;44.714;37.756;2023-03-11T03:38:37;4.57;;;1.92;;
79015;SDS011;68420;44.714;37.756;2023-03-11T03:39:39;4.30;;;1.90;;
79015;SDS011;68420;44.714;37.756;2023-03-11T03:40:44;6.07;;;2.00;;
79015;SDS011;68420;44.714;37.756;2023-03-11T03:41:49;3.95;;;1.70;;
79015;SDS011;68420;44.714;37.756;2023-03-11T03:42:51;4.38;;;1.90;;
79015;SDS011;68420;44.714;37.756;2023-03-11T03:43:53;4.72;;;1.90;;
79015;SDS011;68420;44.714;37.756;2023-03-11T03:44:54;3.00;;;1.70;;
79015;SDS011;68420;44.714;37.756;2023-03-11T03:45:56;3.55;;;1.73;;
79015;SDS011;68420;44.714;37.756;2023-03-11T03:47:02;4.68;;;2.17;;
79015;SDS011;68420;44.714;37.756;2023-03-11T03:48:04;4.95;;;2.10;;
79015;SDS011;68420;44.714;37.756;2023-03-11T03:49:09;4.10;;;1.80;;
79015;SDS011;68420;44.714;37.756;2023-03-11T03:50:12;5.00;;;1.80;;
79015;SDS011;68420;44.714;37.756;2023-03-11T03:52:30;3.78;;;1.80;;
79015;SDS011;68420;44.714;37.756;2023-03-11T03:53:32;5.10;;;1.73;;
79015;SDS011;68420;44.714;37.756;2023-03-11T03:54:35;4.18;;;2.03;;
79015;SDS011;68420;44.714;37.756;2023-03-11T03:55:37;4.55;;;1.80;;
79015;SDS011;68420;44.714;37.756;2023-03-11T03:56:38;4.43;;;1.88;;
79015;SDS011;68420;44.714;37.756;2023-03-11T03:57:40;4.30;;;2.00;;
79015;SDS011;68420;44.714;37.756;2023-03-11T03:58:44;4.43;;;1.90;;
79015;SDS011;68420;44.714;37.756;2023-03-11T03:59:45;4.60;;;1.83;;
79015;SDS011;68420;44.714;37.756;2023-03-11T04:00:47;3.33;;;1.60;;
79015;SDS011;68420;44.714;37.756;2023-03-11T04:01:48;3.95;;;1.80;;
79015;SDS011;68420;44.714;37.756;2023-03-11T04:02:51;8.38;;;1.95;;
79015;SDS011;68420;44.714;37.756;2023-03-11T04:04:00;5.28;;;2.00;;
79015;SDS011;68420;44.714;37.756;2023-03-11T04:05:02;4.35;;;1.90;;
79015;SDS011;68420;44.714;37.756;2023-03-11T04:06:25;3.00;;;1.65;;
79015;SDS011;68420;44.714;37.756;2023-03-11T04:07:32;2.70;;;1.60;;
79015;SDS011;68420;44.714;37.756;2023-03-11T04:08:36;4.30;;;1.85;;
79015;SDS011;68420;44.714;37.756;2023-03-11T04:09:38;4.25;;;1.90;;
79015;SDS011;68420;44.714;37.756;2023-03-11T04:10:41;3.53;;;1.70;;
79015;SDS011;68420;44.714;37.756;2023-03-11T04:11:42;3.85;;;1.70;;
79015;SDS011;68420;44.714;37.756;2023-03-11T04:12:45;5.25;;;1.73;;
79015;SDS011;68420;44.714;37.756;2023-03-11T04:13:49;7.10;;;2.13;;
79015;SDS011;68420;44.714;37.756;2023-03-11T04:15:11;4.75;;;1.90;;
79015;SDS011;68420;44.714;37.756;2023-03-11T04:16:21;4.05;;;1.83;;
79015;SDS011;68420;44.714;37.756;2023-03-11T04:17:25;4.97;;;1.92;;
79015;SDS011;68420;44.714;37.756;2023-03-11T04:18:28;5.95;;;1.90;;
79015;SDS011;68420;44.714;37.756;2023-03-11T04:19:29;5.05;;;1.70;;
79015;SDS011;68420;44.714;37.756;2023-03-11T04:20:32;6.10;;;1.65;;
79015;SDS011;68420;44.714;37.756;2023-03-11T04:21:33;4.70;;;1.73;;
79015;SDS011;68420;44.714;37.756;2023-03-11T04:22:35;5.28;;;1.80;;
79015;SDS011;68420;44.714;37.756;2023-03-11T04:23:37;4.80;;;1.70;;
79015;SDS011;68420;44.714;37.756;2023-03-11T04:24:40;5.03;;;1.70;;
79015;SDS011;68420;44.714;37.756;2023-03-11T04:25:41;5.40;;;2.03;;
79015;SDS011;68420;44.714;37.756;2023-03-11T04:26:43;5.25;;;1.70;;
79015;SDS011;68420;44.714;37.756;2023-03-11T04:27:48;5.68;;;1.73;;
79015;SDS011;68420;44.714;37.756;2023-03-11T04:28:52;2.95;;;1.55;;
79015;SDS011;68420;44.714;37.756;2023-03-11T04:29:53;5.55;;;1.95;;
79015;SDS011;68420;44.714;37.756;2023-03-11T04:30:54;4.75;;;2.08;;
79015;SDS011;68420;44.714;37.756;2023-03-11T04:31:56;2.95;;;1.50;;
79015;SDS011;68420;44.714;37.756;2023-03-11T04:32:58;4.28;;;1.75;;
79015;SDS011;68420;44.714;37.756;2023-03-11T04:33:59;5.03;;;1.90;;
79015;SDS011;68420;44.714;37.756;2023-03-11T04:35:00;4.70;;;1.73;;
79015;SDS011;68420;44.714;37.756;2023-03-11T04:36:05;3.83;;;1.77;;
79015;SDS011;68420;44.714;37.756;2023-03-11T04:37:09;4.88;;;1.70;;
79015;SDS011;68420;44.714;37.756;2023-03-11T04:38:11;3.35;;;1.77;;
79015;SDS011;68420;44.714;37.756;2023-03-11T04:39:13;4.03;;;1.73;;
79015;SDS011;68420;44.714;37.756;2023-03-11T04:40:17;4.70;;;1.80;;
79015;SDS011;68420;44.714;37.756;2023-03-11T04:41:19;3.95;;;1.70;;
79015;SDS011;68420;44.714;37.756;2023-03-11T04:42:20;5.15;;;1.95;;
79015;SDS011;68420;44.714;37.756;2023-03-11T04:43:22;3.40;;;1.83;;
79015;SDS011;68420;44.714;37.756;2023-03-11T04:44:23;3.97;;;1.77;;
79015;SDS011;68420;44.714;37.756;2023-03-11T04:45:25;2.80;;;1.42;;
79015;SDS011;68420;44.714;37.756;2023-03-11T04:46:29;6.07;;;1.60;;
79015;SDS011;68420;44.714;37.756;2023-03-11T04:47:39;5.00;;;1.70;;
79015;SDS011;68420;44.714;37.756;2023-03-11T04:48:40;4.55;;;1.75;;
79015;SDS011;68420;44.714;37.756;2023-03-11T04:49:42;7.43;;;1.70;;
79015;SDS011;68420;44.714;37.756;2023-03-11T04:50:45;4.38;;;1.58;;
79015;SDS011;68420;44.714;37.756;2023-03-11T04:51:48;3.30;;;1.60;;
79015;SDS011;68420;44.714;37.756;2023-03-11T04:52:52;6.03;;;1.70;;
79015;SDS011;68420;44.714;37.756;2023-03-11T04:53:54;4.85;;;1.92;;
79015;SDS011;68420;44.714;37.756;2023-03-11T04:54:55;4.97;;;1.80;;
79015;SDS011;68420;44.714;37.756;2023-03-11T04:55:57;5.40;;;1.65;;
79015;SDS011;68420;44.714;37.756;2023-03-11T04:56:58;12.60;;;2.10;;
79015;SDS011;68420;44.714;37.756;2023-03-11T04:58:00;5.90;;;1.60;;
79015;SDS011;68420;44.714;37.756;2023-03-11T04:59:01;3.22;;;1.60;;
79015;SDS011;68420;44.714;37.756;2023-03-11T05:00:04;4.28;;;1.40;;
79015;SDS011;68420;44.714;37.756;2023-03-11T05:01:10;2.25;;;1.25;;
79015;SDS011;68420;44.714;37.756;2023-03-11T05:02:11;4.82;;;1.80;;
79015;SDS011;68420;44.714;37.756;2023-03-11T05:03:14;4.22;;;1.60;;
79015;SDS011;68420;44.714;37.756;2023-03-11T05:04:15;4.10;;;1.80;;
79015;SDS011;68420;44.714;37.756;2023-03-11T05:05:17;3.20;;;1.52;;
79015;SDS011;68420;44.714;37.756;2023-03-11T05:06:21;5.78;;;1.83;;
79015;SDS011;68420;44.714;37.756;2023-03-11T05:07:23;5.03;;;1.60;;
79015;SDS011;68420;44.714;37.756;2023-03-11T05:08:24;4.63;;;1.50;;
79015;SDS011;68420;44.714;37.756;2023-03-11T05:09:33;4.72;;;1.52;;
79015;SDS011;68420;44.714;37.756;2023-03-11T05:10:35;3.58;;;1.60;;
79015;SDS011;68420;44.714;37.756;2023-03-11T05:11:39;5.40;;;1.83;;
79015;SDS011;68420;44.714;37.756;2023-03-11T05:12:40;4.47;;;1.70;;
79015;SDS011;68420;44.714;37.756;2023-03-11T05:13:42;3.97;;;1.70;;
79015;SDS011;68420;44.714;37.756;2023-03-11T05:14:43;3.45;;;1.50;;
79015;SDS011;68420;44.714;37.756;2023-03-11T05:15:45;4.40;;;1.60;;
79015;SDS011;68420;44.714;37.756;2023-03-11T05:16:46;4.28;;;1.73;;
79015;SDS011;68420;44.714;37.756;2023-03-11T05:17:48;3.30;;;1.70;;
79015;SDS011;68420;44.714;37.756;2023-03-11T05:18:49;4.60;;;1.83;;
79015;SDS011;68420;44.714;37.756;2023-03-11T05:19:51;3.17;;;1.50;;
79015;SDS011;68420;44.714;37.756;2023-03-11T05:21:04;4.78;;;1.73;;
79015;SDS011;68420;44.714;37.756;2023-03-11T05:22:07;3.95;;;1.60;;
79015;SDS011;68420;44.714;37.756;2023-03-11T05:23:08;5.07;;;1.70;;
79015;SDS011;68420;44.714;37.756;2023-03-11T05:24:11;3.90;;;1.58;;
79015;SDS011;68420;44.714;37.756;2023-03-11T05:25:12;4.93;;;1.77;;
79015;SDS011;68420;44.714;37.756;2023-03-11T05:26:13;3.97;;;1.50;;
79015;SDS011;68420;44.714;37.756;2023-03-11T05:27:17;3.95;;;1.50;;
79015;SDS011;68420;44.714;37.756;2023-03-11T05:28:22;4.78;;;1.65;;
79015;SDS011;68420;44.714;37.756;2023-03-11T05:29:26;4.15;;;1.60;;
79015;SDS011;68420;44.714;37.756;2023-03-11T05:30:28;4.72;;;1.50;;
79015;SDS011;68420;44.714;37.756;2023-03-11T05:31:31;3.22;;;1.80;;
79015;SDS011;68420;44.714;37.756;2023-03-11T05:32:32;3.22;;;1.40;;
79015;SDS011;68420;44.714;37.756;2023-03-11T05:33:34;4.25;;;1.55;;
79015;SDS011;68420;44.714;37.756;2023-03-11T05:34:37;4.20;;;1.70;;
79015;SDS011;68420;44.714;37.756;2023-03-11T05:35:39;5.00;;;1.50;;
79015;SDS011;68420;44.714;37.756;2023-03-11T05:36:41;3.83;;;1.40;;
79015;SDS011;68420;44.714;37.756;2023-03-11T05:37:42;3.45;;;1.63;;
79015;SDS011;68420;44.714;37.756;2023-03-11T05:38:44;3.67;;;1.73;;
79015;SDS011;68420;44.714;37.756;2023-03-11T05:39:46;5.43;;;1.90;;
79015;SDS011;68420;44.714;37.756;2023-03-11T05:40:48;3.45;;;1.35;;
79015;SDS011;68420;44.714;37.756;2023-03-11T05:41:53;4.28;;;1.60;;
79015;SDS011;68420;44.714;37.756;2023-03-11T05:42:56;3.15;;;1.40;;
79015;SDS011;68420;44.714;37.756;2023-03-11T05:43:59;4.90;;;1.75;;
79015;SDS011;68420;44.714;37.756;2023-03-11T05:45:00;4.70;;;1.50;;
79015;SDS011;68420;44.714;37.756;2023-03-11T05:46:02;4.65;;;1.58;;
79015;SDS011;68420;44.714;37.756;2023-03-11T05:47:04;3.58;;;1.60;;
79015;SDS011;68420;44.714;37.756;2023-03-11T05:48:06;4.15;;;1.77;;
79015;SDS011;68420;44.714;37.756;2023-03-11T05:49:10;3.67;;;1.40;;
79015;SDS011;68420;44.714;37.756;2023-03-11T05:50:11;4.20;;;1.75;;
79015;SDS011;68420;44.714;37.756;2023-03-11T05:51:14;3.88;;;1.50;;
79015;SDS011;68420;44.714;37.756;2023-03-11T05:52:20;3.70;;;1.50;;
79015;SDS011;68420;44.714;37.756;2023-03-11T05:53:22;3.15;;;1.50;;
79015;SDS011;68420;44.714;37.756;2023-03-11T05:54:23;2.88;;;1.55;;
79015;SDS011;68420;44.714;37.756;2023-03-11T05:55:26;3.15;;;1.50;;
79015;SDS011;68420;44.714;37.756;2023-03-11T05:56:27;2.63;;;1.50;;
79015;SDS011;68420;44.714;37.756;2023-03-11T05:57:29;3.60;;;1.30;;
79015;SDS011;68420;44.714;37.756;2023-03-11T05:58:31;3.80;;;1.85;;
79015;SDS011;68420;44.714;37.756;2023-03-11T05:59:33;5.03;;;1.65;;
79015;SDS011;68420;44.714;37.756;2023-03-11T06:00:38;3.58;;;1.40;;
79015;SDS011;68420;44.714;37.756;2023-03-11T06:01:40;3.08;;;1.50;;
79015;SDS011;68420;44.714;37.756;2023-03-11T06:02:42;3.17;;;1.20;;
79015;SDS011;68420;44.714;37.756;2023-03-11T06:03:47;4.78;;;1.50;;
79015;SDS011;68420;44.714;37.756;2023-03-11T06:04:48;4.03;;;1.38;;
79015;SDS011;68420;44.714;37.756;2023-03-11T06:05:50;3.35;;;1.60;;
79015;SDS011;68420;44.714;37.756;2023-03-11T06:06:52;3.03;;;1.30;;
79015;SDS011;68420;44.714;37.756;2023-03-11T06:07:56;2.63;;;1.30;;
79015;SDS011;68420;44.714;37.756;2023-03-11T06:08:58;3.60;;;1.42;;
79015;SDS011;68420;44.714;37.756;2023-03-11T06:10:02;4.25;;;1.60;;
79015;SDS011;68420;44.714;37.756;2023-03-11T06:11:07;2.83;;;1.40;;
79015;SDS011;68420;44.714;37.756;2023-03-11T06:12:11;4.07;;;1.70;;
79015;SDS011;68420;44.714;37.756;2023-03-11T06:13:23;3.40;;;1.60;;
79015;SDS011;68420;44.714;37.756;2023-03-11T06:14:26;3.50;;;1.50;;
79015;SDS011;68420;44.714;37.756;2023-03-11T06:15:32;4.45;;;1.50;;
79015;SDS011;68420;44.714;37.756;2023-03-11T06:16:34;4.18;;;1.77;;
79015;SDS011;68420;44.714;37.756;2023-03-11T06:17:37;4.00;;;1.50;;
79015;SDS011;68420;44.714;37.756;2023-03-11T06:18:38;3.63;;;1.55;;
79015;SDS011;68420;44.714;37.756;2023-03-11T06:19:49;3.97;;;1.77;;
79015;SDS011;68420;44.714;37.756;2023-03-11T06:20:51;2.78;;;1.63;;
79015;SDS011;68420;44.714;37.756;2023-03-11T06:21:53;2.72;;;1.40;;